Time;durP1;ratioP1;P1;durP2;ratioP2;P2;SDS_P1;SDS_P2;PMS_P1;PMS_P2;Temp;Humidity;BMP_temperature;BMP_pressure;BME280_temperature;BME280_humidity;BME280_pressure;Samples;Min_cycle;Max_cycle;Signal;HPM_P1;HPM_P2
2021/05/17 01:56:35;;;;;;;2.17;1.97;;;10.20;99.90;;;;;;5120082;27;20549;-76
2021/05/17 01:59:00;;;;;;;3.13;2.80;;;10.10;99.90;;;;;;5115010;27;20467;-76
2021/05/17 02:01:26;;;;;;;3.40;3.00;;;10.10;99.90;;;;;;5109084;28;20389;-76
2021/05/17 02:03:51;;;;;;;4.10;2.30;;;10.30;99.90;;;;;;5111467;28;20256;-76
2021/05/17 02:06:18;;;;;;;5.67;3.57;;;10.30;99.90;;;;;;5118220;27;20167;-77
2021/05/17 02:08:45;;;;;;;3.23;2.47;;;10.40;99.90;;;;;;5129629;27;20199;-77
2021/05/17 02:11:13;;;;;;;2.87;2.57;;;10.40;99.90;;;;;;5114390;28;20456;-77
2021/05/17 02:13:39;;;;;;;3.00;2.57;;;10.30;99.90;;;;;;5108899;28;20814;-77
2021/05/17 02:16:05;;;;;;;2.73;2.53;;;10.40;99.90;;;;;;5109053;28;20887;-76
2021/05/17 02:18:31;;;;;;;2.40;2.20;;;10.40;99.90;;;;;;5108573;28;20463;-76
2021/05/17 02:20:57;;;;;;;2.67;2.30;;;10.40;99.90;;;;;;5108350;28;20429;-76
2021/05/17 02:23:22;;;;;;;2.63;2.30;;;10.40;99.90;;;;;;5108774;28;20168;-75
2021/05/17 02:25:50;;;;;;;2.60;2.40;;;10.30;99.90;;;;;;5108921;28;20173;-75
2021/05/17 02:28:17;;;;;;;3.20;2.90;;;10.40;99.90;;;;;;5108476;28;20656;-75
2021/05/17 02:30:44;;;;;;;2.73;2.53;;;10.40;99.90;;;;;;5107923;28;20434;-75
2021/05/17 02:33:10;;;;;;;3.03;2.77;;;10.50;99.90;;;;;;5088208;28;20425;-75
2021/05/17 02:35:37;;;;;;;2.30;2.20;;;10.50;99.90;;;;;;5088250;28;20486;-75
2021/05/17 02:38:03;;;;;;;2.37;2.13;;;10.50;99.90;;;;;;5100312;28;20432;-75
2021/05/17 02:40:29;;;;;;;2.60;2.40;;;10.60;99.90;;;;;;5108588;28;20403;-75
2021/05/17 02:43:06;;;;;;;1.97;1.80;;;10.60;99.90;;;;;;5108615;28;20768;-75
2021/05/17 02:45:32;;;;;;;2.30;2.10;;;10.70;99.90;;;;;;5108476;28;20402;-75
2021/05/17 02:48:00;;;;;;;3.30;3.00;;;10.70;99.90;;;;;;5107956;28;20425;-76
2021/05/17 02:50:35;;;;;;;2.63;2.10;;;10.70;99.90;;;;;;5108288;28;20414;-76
2021/05/17 02:53:21;;;;;;;3.07;2.20;;;10.70;99.90;;;;;;5108172;28;20830;-76
2021/05/17 02:55:49;;;;;;;2.53;2.33;;;10.80;99.90;;;;;;5107942;28;20463;-76
2021/05/17 02:58:18;;;;;;;3.40;2.47;;;10.80;99.90;;;;;;5108015;28;20438;-76
2021/05/17 03:00:49;;;;;;;2.60;2.40;;;10.80;99.90;;;;;;5108285;28;20399;-76
2021/05/17 03:03:16;;;;;;;3.80;2.53;;;10.80;99.90;;;;;;5105507;28;20406;-77
2021/05/17 03:05:44;;;;;;;2.50;2.20;;;10.90;99.90;;;;;;5103120;28;20827;-77
2021/05/17 03:08:12;;;;;;;4.13;2.73;;;10.90;99.90;;;;;;5114159;28;20426;-76
2021/05/17 03:10:43;;;;;;;3.87;2.80;;;10.90;99.90;;;;;;5105791;28;20499;-75
2021/05/17 03:13:11;;;;;;;2.87;2.67;;;10.90;99.90;;;;;;5094110;28;20404;-76
2021/05/17 03:15:38;;;;;;;3.17;2.87;;;11.00;99.90;;;;;;5083597;28;20448;-77
2021/05/17 03:18:04;;;;;;;3.33;3.03;;;10.90;99.90;;;;;;5072875;28;20424;-76
2021/05/17 03:20:30;;;;;;;3.97;3.00;;;10.90;99.90;;;;;;5073969;28;20462;-76
2021/05/17 03:22:57;;;;;;;4.27;3.23;;;11.00;99.90;;;;;;5073767;28;20413;-76
2021/05/17 03:25:27;;;;;;;3.23;2.90;;;11.00;99.90;;;;;;5073891;28;20167;-76
2021/05/17 03:27:53;;;;;;;2.90;2.67;;;11.00;99.90;;;;;;5073766;28;20424;-76
2021/05/17 03:30:20;;;;;;;2.70;2.50;;;10.90;99.90;;;;;;5073989;28;20740;-76
2021/05/17 03:32:45;;;;;;;3.10;2.80;;;10.90;99.90;;;;;;5073652;28;20435;-76
2021/05/17 03:35:11;;;;;;;5.53;3.40;;;10.90;99.90;;;;;;5073662;28;20459;-76
2021/05/17 03:37:36;;;;;;;5.20;2.90;;;10.90;99.90;;;;;;5073450;28;20197;-76
2021/05/17 03:40:03;;;;;;;3.70;3.07;;;10.90;99.90;;;;;;5072525;28;20165;-77
2021/05/17 03:42:29;;;;;;;3.70;2.40;;;10.80;99.90;;;;;;5073377;28;20245;-76
2021/05/17 03:44:54;;;;;;;3.07;2.30;;;10.80;99.90;;;;;;5073566;28;20539;-75
2021/05/17 03:47:20;;;;;;;2.90;2.60;;;10.80;99.90;;;;;;5071866;28;20178;-76
2021/05/17 03:49:45;;;;;;;2.30;2.20;;;10.80;99.90;;;;;;5073505;28;20170;-77
2021/05/17 03:52:11;;;;;;;2.50;2.30;;;10.90;99.90;;;;;;5073176;28;20173;-76
2021/05/17 03:54:36;;;;;;;2.67;2.47;;;10.90;99.90;;;;;;5073277;28;20255;-76
2021/05/17 03:57:04;;;;;;;4.73;2.80;;;10.90;99.90;;;;;;5074672;28;20151;-77
2021/05/17 03:59:31;;;;;;;3.40;3.10;;;10.90;99.90;;;;;;5075477;28;20223;-76
2021/05/17 04:01:56;;;;;;;4.80;2.50;;;11.00;99.90;;;;;;5076773;28;20431;-77
2021/05/17 04:04:23;;;;;;;3.00;2.80;;;10.90;99.90;;;;;;5092375;28;20415;-76
2021/05/17 04:06:54;;;;;;;3.07;2.80;;;11.00;99.90;;;;;;5093937;28;20509;-76
2021/05/17 04:14:47;;;;;;;3.40;2.93;;;11.10;99.90;;;;;;5093260;28;20508;-76
2021/05/17 04:17:13;;;;;;;3.27;2.97;;;11.10;99.90;;;;;;5092760;28;20411;-76
2021/05/17 04:19:39;;;;;;;5.40;3.03;;;11.10;99.90;;;;;;5092075;28;20194;-76
2021/05/17 04:22:05;;;;;;;2.93;2.70;;;11.10;99.90;;;;;;5093064;28;20660;-76
2021/05/17 04:24:30;;;;;;;4.40;2.63;;;11.00;99.90;;;;;;5093071;28;20497;-76
2021/05/17 04:26:56;;;;;;;3.23;2.93;;;10.90;99.90;;;;;;5092705;28;20162;-76
2021/05/17 04:29:21;;;;;;;3.70;3.17;;;10.90;99.90;;;;;;5092851;28;20198;-76
2021/05/17 04:31:47;;;;;;;4.87;3.13;;;10.90;99.90;;;;;;5092757;28;20205;-76
2021/05/17 04:34:13;;;;;;;4.77;3.70;;;10.90;99.90;;;;;;5092777;28;20161;-75
2021/05/17 04:36:39;;;;;;;2.90;2.50;;;10.90;99.90;;;;;;5091744;28;20871;-76
2021/05/17 04:39:05;;;;;;;3.33;3.00;;;11.00;99.90;;;;;;5092763;28;20422;-76
2021/05/17 04:41:30;;;;;;;3.63;2.73;;;11.10;99.90;;;;;;5092767;28;20165;-76
2021/05/17 04:43:56;;;;;;;4.80;3.00;;;11.20;99.90;;;;;;5092964;28;20400;-77
2021/05/17 04:46:22;;;;;;;3.30;3.00;;;11.40;99.90;;;;;;5092773;28;20173;-76
2021/05/17 04:48:50;;;;;;;3.43;3.10;;;11.40;99.90;;;;;;5092821;28;20194;-76
2021/05/17 04:51:18;;;;;;;3.20;2.47;;;11.40;99.90;;;;;;5093470;28;20982;-76
2021/05/17 04:53:43;;;;;;;4.97;2.80;;;11.40;99.90;;;;;;5092943;28;20400;-76
2021/05/17 04:56:09;;;;;;;3.97;2.60;;;11.60;99.90;;;;;;5092616;28;20451;-76
2021/05/17 04:58:35;;;;;;;5.80;2.93;;;11.60;99.90;;;;;;5092487;28;20181;-76
2021/05/17 05:01:00;;;;;;;2.97;2.57;;;11.70;99.90;;;;;;5092437;28;20245;-76
2021/05/17 05:03:26;;;;;;;2.70;2.50;;;11.70;99.90;;;;;;5092403;28;20166;-76
2021/05/17 05:05:51;;;;;;;2.80;2.60;;;11.90;99.90;;;;;;5092482;28;20711;-75
2021/05/17 05:08:16;;;;;;;2.43;2.23;;;12.30;99.90;;;;;;5091997;28;20189;-76
2021/05/17 05:10:42;;;;;;;2.43;2.17;;;12.30;99.90;;;;;;5090809;28;20173;-76
2021/05/17 05:13:07;;;;;;;2.97;2.60;;;12.60;99.90;;;;;;5091955;28;20538;-76
2021/05/17 05:15:33;;;;;;;2.53;1.77;;;12.90;99.90;;;;;;5091889;28;20201;-75
2021/05/17 05:17:58;;;;;;;6.17;2.50;;;13.20;99.90;;;;;;5091995;28;20214;-76
2021/05/17 05:20:24;;;;;;;2.33;2.13;;;13.10;99.90;;;;;;5092047;28;20179;-76
2021/05/17 05:22:49;;;;;;;2.60;1.90;;;13.00;99.90;;;;;;5092211;28;20263;-75
2021/05/17 05:25:17;;;;;;;3.57;2.13;;;13.20;99.90;;;;;;5091812;28;20227;-75
2021/05/17 05:27:46;;;;;;;2.63;2.43;;;13.50;99.90;;;;;;5091759;28;20200;-76
2021/05/17 05:30:30;;;;;;;1.87;1.77;;;13.80;99.90;;;;;;5091725;28;20438;-76
2021/05/17 05:33:08;;;;;;;2.20;1.50;;;14.50;99.90;;;;;;5091810;28;20429;-76
2021/05/17 05:35:34;;;;;;;4.37;1.80;;;14.90;99.90;;;;;;5092334;28;20457;-76
2021/05/17 05:38:00;;;;;;;1.50;1.40;;;15.00;99.90;;;;;;5091651;28;20420;-75
2021/05/17 05:40:25;;;;;;;1.40;1.30;;;15.00;99.90;;;;;;5091771;28;20427;-76
2021/05/17 05:42:51;;;;;;;1.73;1.63;;;15.80;99.90;;;;;;5091884;28;20164;-76
2021/05/17 05:45:17;;;;;;;2.53;1.67;;;16.80;99.90;;;;;;5090337;28;20259;-75
2021/05/17 05:47:42;;;;;;;1.67;1.17;;;16.20;99.90;;;;;;5091253;28;20236;-75
2021/05/17 05:50:08;;;;;;;2.13;1.70;;;16.40;99.90;;;;;;5091842;28;20416;-75
2021/05/17 05:52:36;;;;;;;1.50;1.40;;;16.80;99.90;;;;;;5091779;28;20189;-74
2021/05/17 05:55:04;;;;;;;2.13;1.20;;;15.90;99.90;;;;;;5091713;28;20489;-77
2021/05/17 05:57:36;;;;;;;1.47;1.10;;;15.40;99.90;;;;;;5091635;28;20405;-77
2021/05/17 06:00:03;;;;;;;1.40;1.30;;;15.40;99.90;;;;;;5091986;28;20402;-75
2021/05/17 06:02:28;;;;;;;1.27;1.17;;;15.90;99.90;;;;;;5091323;28;20961;-75
2021/05/17 06:04:53;;;;;;;3.73;1.13;;;15.10;99.90;;;;;;5091686;28;20408;-75
2021/05/17 06:07:19;;;;;;;5.20;1.40;;;15.40;99.90;;;;;;5091278;28;20625;-75
2021/05/17 06:09:45;;;;;;;1.03;0.93;;;16.10;99.90;;;;;;5091690;28;20653;-75
2021/05/17 06:12:11;;;;;;;1.87;1.50;;;16.00;99.90;;;;;;5086482;28;20166;-75
2021/05/17 06:14:37;;;;;;;2.97;1.97;;;15.70;99.90;;;;;;5070101;28;20505;-75
2021/05/17 06:17:02;;;;;;;2.80;2.17;;;15.90;99.90;;;;;;5077190;28;20258;-75
2021/05/17 06:19:28;;;;;;;1.77;1.67;;;15.60;99.90;;;;;;5075221;28;20563;-75
2021/05/17 06:21:54;;;;;;;1.53;1.27;;;17.40;99.90;;;;;;5071371;28;20174;-75
2021/05/17 06:24:21;;;;;;;2.20;1.37;;;18.60;99.90;;;;;;5071314;28;20545;-75
2021/05/17 06:26:46;;;;;;;1.57;1.30;;;18.30;99.90;;;;;;5071148;28;20415;-76
2021/05/17 06:29:12;;;;;;;1.83;1.57;;;17.90;99.90;;;;;;5071191;28;20434;-74
2021/05/17 06:31:45;;;;;;;1.40;1.17;;;17.50;99.90;;;;;;5071332;28;20168;-74
2021/05/17 06:34:10;;;;;;;2.37;1.57;;;17.80;99.90;;;;;;5071919;28;20823;-75
2021/05/17 06:36:36;;;;;;;1.20;1.10;;;17.30;99.90;;;;;;5071484;28;20401;-73
2021/05/17 06:39:04;;;;;;;1.50;1.00;;;17.20;99.90;;;;;;5071324;28;20712;-74
2021/05/17 06:41:30;;;;;;;2.00;1.80;;;17.30;99.90;;;;;;5085273;28;20174;-74
2021/05/17 06:43:56;;;;;;;1.50;1.00;;;16.90;99.90;;;;;;5093820;28;20791;-74
2021/05/17 06:46:22;;;;;;;2.83;1.50;;;16.70;99.90;;;;;;5094628;28;20458;-75
2021/05/17 06:48:47;;;;;;;1.77;1.30;;;17.10;99.90;;;;;;5095192;28;20194;-74
2021/05/17 06:51:16;;;;;;;2.30;1.03;;;17.40;99.90;;;;;;5094941;28;20180;-75
2021/05/17 06:53:42;;;;;;;1.70;1.20;;;16.30;99.90;;;;;;5095012;28;20162;-75
2021/05/17 06:56:15;;;;;;;1.30;1.20;;;15.90;99.90;;;;;;5094771;28;20465;-75
2021/05/17 06:58:54;;;;;;;1.43;1.10;;;15.60;99.90;;;;;;5094833;28;20419;-75
2021/05/17 07:01:20;;;;;;;2.80;1.20;;;15.50;99.90;;;;;;5094660;28;20403;-75
2021/05/17 07:03:46;;;;;;;1.90;1.30;;;15.60;99.90;;;;;;5094746;28;20399;-75
2021/05/17 07:06:16;;;;;;;1.60;1.10;;;15.70;99.90;;;;;;5094593;28;20568;-75
2021/05/17 07:11:42;;;;;;;1.37;1.00;;;16.70;99.90;;;;;;5094563;28;20409;-75
2021/05/17 07:14:08;;;;;;;2.03;1.00;;;17.30;99.90;;;;;;5093428;28;20453;-75
2021/05/17 07:16:34;;;;;;;1.43;1.03;;;18.20;99.90;;;;;;5094353;28;20918;-75
2021/05/17 07:18:59;;;;;;;1.83;1.00;;;17.40;99.90;;;;;;5092368;28;20201;-76
2021/05/17 07:24:10;;;;;;;2.10;1.20;;;18.40;99.90;;;;;;5073928;28;20215;-75
2021/05/17 07:26:35;;;;;;;1.83;1.07;;;18.20;99.90;;;;;;5087991;28;20461;-75
2021/05/17 07:29:03;;;;;;;1.40;1.20;;;18.30;99.90;;;;;;5093974;28;20191;-75
2021/05/17 07:31:28;;;;;;;0.83;0.73;;;19.10;99.90;;;;;;5093924;28;20168;-75
2021/05/17 07:33:54;;;;;;;1.37;1.00;;;19.00;99.90;;;;;;5094119;28;20899;-75
2021/05/17 07:36:19;;;;;;;1.00;0.90;;;19.20;99.90;;;;;;5093632;28;20261;-75
2021/05/17 07:38:45;;;;;;;2.50;0.90;;;20.40;99.90;;;;;;5099944;28;20193;-75
2021/05/17 07:41:11;;;;;;;0.83;0.80;;;19.70;99.90;;;;;;5109890;28;20687;-75
2021/05/17 07:43:37;;;;;;;1.30;1.20;;;19.90;99.90;;;;;;5114221;28;20634;-75
2021/05/17 07:46:02;;;;;;;2.50;1.17;;;20.40;99.90;;;;;;5113963;28;20464;-75
2021/05/17 07:48:28;;;;;;;4.20;1.27;;;21.00;99.90;;;;;;5113943;28;20192;-75
2021/05/17 07:50:53;;;;;;;2.37;0.97;;;20.00;99.90;;;;;;5099640;28;20620;-75
2021/05/17 07:53:19;;;;;;;1.83;1.00;;;21.60;99.90;;;;;;5081080;28;20524;-75
2021/05/17 07:55:48;;;;;;;3.10;1.00;;;21.00;99.90;;;;;;5073587;28;20188;-75
2021/05/17 07:58:13;;;;;;;1.53;1.10;;;21.80;99.90;;;;;;5092656;28;20253;-75
2021/05/17 08:00:39;;;;;;;1.10;1.00;;;20.90;99.90;;;;;;5092675;28;20417;-75
2021/05/17 08:03:04;;;;;;;2.20;1.10;;;20.60;99.90;;;;;;5093784;28;20167;-75
2021/05/17 08:05:31;;;;;;;1.57;1.47;;;20.20;99.90;;;;;;5093706;28;20186;-75
2021/05/17 08:07:57;;;;;;;6.83;1.63;;;20.90;99.90;;;;;;5093178;28;20193;-75
2021/05/17 08:10:23;;;;;;;1.17;0.93;;;20.30;99.90;;;;;;5073814;28;20408;-75
2021/05/17 08:12:49;;;;;;;1.03;0.93;;;20.20;99.90;;;;;;5080433;28;20170;-74
2021/05/17 08:15:14;;;;;;;2.03;0.83;;;20.60;99.90;;;;;;5079899;28;20812;-75
2021/05/17 08:17:40;;;;;;;3.03;1.23;;;22.00;99.90;;;;;;5081710;28;20253;-77
2021/05/17 08:20:06;;;;;;;1.20;0.83;;;22.20;99.90;;;;;;5086570;28;20185;-73
2021/05/17 08:22:34;;;;;;;1.23;0.80;;;21.60;99.90;;;;;;5092624;28;20171;-74
2021/05/17 08:25:00;;;;;;;2.00;1.00;;;20.70;99.90;;;;;;5072741;28;20473;-72
2021/05/17 08:27:25;;;;;;;1.73;1.00;;;20.10;99.90;;;;;;5085411;28;20904;-73
2021/05/17 08:29:51;;;;;;;1.73;0.90;;;21.00;99.90;;;;;;5093207;28;20180;-72
2021/05/17 08:32:16;;;;;;;1.30;0.83;;;21.10;99.90;;;;;;5089927;28;20177;-73
2021/05/17 08:34:42;;;;;;;4.17;1.00;;;20.30;99.90;;;;;;5080167;28;20239;-74
2021/05/17 08:37:07;;;;;;;1.73;0.90;;;20.10;99.90;;;;;;5086322;28;20643;-73
2021/05/17 08:39:33;;;;;;;1.20;0.77;;;19.10;99.90;;;;;;5084974;28;20203;-74
2021/05/17 08:41:59;;;;;;;2.10;1.30;;;18.80;99.90;;;;;;5092515;28;20549;-73
2021/05/17 08:44:26;;;;;;;1.30;1.00;;;18.30;99.90;;;;;;5072487;28;20193;-74
2021/05/17 08:46:52;;;;;;;2.40;1.10;;;19.20;99.90;;;;;;5079422;28;20646;-73
2021/05/17 08:49:18;;;;;;;1.37;1.27;;;18.80;99.90;;;;;;5072566;28;20480;-74
2021/05/17 08:51:45;;;;;;;3.10;0.93;;;19.20;99.90;;;;;;5091271;28;20435;-73
2021/05/17 08:54:11;;;;;;;1.60;1.00;;;18.90;99.90;;;;;;5078721;28;20788;-74
2021/05/17 08:56:43;;;;;;;1.77;1.07;;;18.60;99.90;;;;;;5085193;28;20540;-74
2021/05/17 08:59:10;;;;;;;1.43;0.90;;;19.40;99.90;;;;;;5072435;28;20294;-74
2021/05/17 09:01:36;;;;;;;1.10;0.97;;;20.10;99.90;;;;;;5077901;28;20924;-73
2021/05/17 09:04:04;;;;;;;1.73;0.90;;;18.80;99.90;;;;;;5092113;28;20414;-73
2021/05/17 09:06:45;;;;;;;2.43;0.93;;;18.90;99.90;;;;;;5097902;28;20197;-74
2021/05/17 09:09:34;;;;;;;2.60;1.07;;;19.10;99.90;;;;;;5108547;28;20454;-75
2021/05/17 09:12:09;;;;;;;0.97;0.80;;;19.00;99.90;;;;;;5113234;28;20388;-74
2021/05/17 09:14:36;;;;;;;2.40;1.00;;;18.60;99.90;;;;;;5094335;28;20439;-75
2021/05/17 09:17:04;;;;;;;1.23;0.87;;;18.80;99.90;;;;;;5090103;28;20393;-74
2021/05/17 09:19:32;;;;;;;2.53;1.17;;;18.80;99.90;;;;;;5077072;28;20441;-75
2021/05/17 09:22:08;;;;;;;0.97;0.87;;;18.00;99.90;;;;;;5082108;28;20433;-74
2021/05/17 09:24:42;;;;;;;2.90;1.00;;;18.00;99.90;;;;;;5071606;28;20410;-74
2021/05/17 09:27:13;;;;;;;3.10;1.23;;;18.30;99.90;;;;;;5071255;28;20429;-73
2021/05/17 09:29:42;;;;;;;2.27;1.43;;;18.10;99.90;;;;;;5075463;28;20454;-74
2021/05/17 09:32:17;;;;;;;3.27;1.50;;;17.90;99.90;;;;;;5071326;28;20415;-75
2021/05/17 09:34:45;;;;;;;1.27;0.97;;;17.50;99.90;;;;;;5073024;28;20436;-74
2021/05/17 09:37:11;;;;;;;1.20;1.00;;;18.00;99.90;;;;;;5090082;28;20852;-74
2021/05/17 09:39:46;;;;;;;1.37;0.90;;;17.90;99.90;;;;;;5086068;28;20533;-74
2021/05/17 09:42:11;;;;;;;1.03;0.80;;;18.20;99.90;;;;;;5071508;28;20439;-74
2021/05/17 09:44:40;;;;;;;3.00;0.80;;;18.70;99.90;;;;;;5071840;28;20463;-74
2021/05/17 09:47:12;;;;;;;1.70;1.00;;;18.40;99.90;;;;;;5071628;28;20167;-74
2021/05/17 09:49:39;;;;;;;2.00;0.80;;;18.20;99.90;;;;;;5071469;28;20794;-74
2021/05/17 09:52:15;;;;;;;1.30;1.13;;;17.40;99.90;;;;;;5074215;28;20915;-74
2021/05/17 09:54:52;;;;;;;1.20;1.10;;;17.40;99.90;;;;;;5072097;28;20428;-74
2021/05/17 09:57:26;;;;;;;1.10;1.00;;;17.40;99.90;;;;;;5076435;28;20401;-74
2021/05/17 09:59:54;;;;;;;4.83;0.90;;;17.50;99.90;;;;;;5070187;28;20410;-74
2021/05/17 10:02:27;;;;;;;1.23;0.93;;;17.50;99.90;;;;;;5088150;28;20759;-74
2021/05/17 10:04:52;;;;;;;0.90;0.80;;;17.20;99.90;;;;;;5078295;28;20493;-75
2021/05/17 10:07:18;;;;;;;2.10;0.93;;;17.20;99.90;;;;;;5070783;28;20499;-74
2021/05/17 10:09:44;;;;;;;1.30;1.10;;;17.70;99.90;;;;;;5071627;28;20185;-74
2021/05/17 10:12:09;;;;;;;1.00;0.90;;;18.10;99.90;;;;;;5087106;28;20747;-74
2021/05/17 10:14:35;;;;;;;0.93;0.80;;;18.50;99.90;;;;;;5089252;28;20219;-75
2021/05/17 10:17:01;;;;;;;1.07;0.80;;;18.40;99.90;;;;;;5072555;28;20170;-75
2021/05/17 10:19:28;;;;;;;1.23;0.90;;;17.90;99.90;;;;;;5075135;28;20456;-75
2021/05/17 10:21:53;;;;;;;1.23;1.00;;;17.90;99.90;;;;;;5078937;28;20189;-75
2021/05/17 10:24:19;;;;;;;1.03;0.93;;;17.50;99.90;;;;;;5090388;28;20909;-74
2021/05/17 10:26:46;;;;;;;2.90;1.10;;;17.40;99.90;;;;;;5076303;28;20213;-74
2021/05/17 10:29:12;;;;;;;4.57;1.20;;;17.70;99.90;;;;;;5087758;28;20548;-74
2021/05/17 10:31:51;;;;;;;4.23;1.50;;;17.80;99.90;;;;;;5095119;28;20405;-75
2021/05/17 10:34:17;;;;;;;1.30;0.87;;;18.30;99.90;;;;;;5088102;28;20173;-75
2021/05/17 10:36:51;;;;;;;1.60;1.47;;;18.40;99.90;;;;;;5075882;28;20510;-74
2021/05/17 10:39:18;;;;;;;2.07;1.00;;;18.60;99.90;;;;;;5075241;28;20205;-74
2021/05/17 10:42:52;;;;;;;1.70;0.90;;;19.20;99.90;;;;;;5075270;28;20427;-74
2021/05/17 10:48:16;;;;;;;0.90;0.80;;;18.60;99.90;;;;;;5096495;28;20427;-74
2021/05/17 10:50:45;;;;;;;1.43;1.33;;;18.70;99.90;;;;;;5086464;28;20803;-74
2021/05/17 10:53:52;;;;;;;1.00;0.67;;;18.80;99.90;;;;;;5084222;28;20404;-73
2021/05/17 10:56:43;;;;;;;2.23;1.00;;;18.90;99.90;;;;;;5091855;28;20549;-74
2021/05/17 11:01:57;;;;;;;1.27;1.10;;;18.90;99.90;;;;;;5074341;28;20426;-75
2021/05/17 11:04:30;;;;;;;0.80;0.70;;;19.30;99.90;;;;;;5074611;28;20408;-74
2021/05/17 11:07:25;;;;;;;1.03;0.93;;;19.20;99.90;;;;;;5074214;28;20405;-75
2021/05/17 11:10:09;;;;;;;2.40;1.10;;;19.30;99.90;;;;;;5095911;28;20797;-75
2021/05/17 11:12:41;;;;;;;1.47;1.37;;;19.20;99.90;;;;;;5095124;28;20409;-77
2021/05/17 11:15:19;;;;;;;1.00;0.80;;;19.40;99.90;;;;;;5074167;28;20400;-77
2021/05/17 11:17:51;;;;;;;2.03;1.00;;;18.90;99.90;;;;;;5073818;28;20432;-76
2021/05/17 11:20:39;;;;;;;1.73;1.20;;;18.70;99.90;;;;;;5075201;28;20405;-77
2021/05/17 11:23:31;;;;;;;1.03;0.93;;;18.80;99.90;;;;;;5094599;28;20403;-76
2021/05/17 11:26:00;;;;;;;1.33;0.90;;;18.60;99.90;;;;;;5083567;28;20458;-76
2021/05/17 11:28:35;;;;;;;2.50;0.90;;;18.90;99.90;;;;;;5093841;28;20418;-77
2021/05/17 11:31:22;;;;;;;1.70;0.90;;;19.30;99.90;;;;;;5093597;28;20440;-77
2021/05/17 11:33:49;;;;;;;1.43;1.20;;;19.20;99.90;;;;;;5094383;28;20429;-77
2021/05/17 11:36:17;;;;;;;0.80;0.80;;;19.00;99.90;;;;;;5094282;28;20463;-77
2021/05/17 11:39:30;;;;;;;1.20;0.73;;;19.20;99.90;;;;;;5094179;28;20423;-75
2021/05/17 11:42:03;;;;;;;1.07;0.80;;;19.20;99.90;;;;;;5058536;28;20480;-74
2021/05/17 11:44:34;;;;;;;2.50;0.93;;;19.20;99.90;;;;;;5095842;28;20410;-75
2021/05/17 11:47:24;;;;;;;1.47;0.80;;;19.20;99.90;;;;;;5097247;28;20421;-79
2021/05/17 11:49:51;;;;;;;1.00;0.70;;;18.30;99.90;;;;;;5086604;28;20501;-79
2021/05/17 11:52:28;;;;;;;1.43;0.87;;;18.60;99.90;;;;;;5095305;28;20544;-75
2021/05/17 11:54:57;;;;;;;2.07;1.07;;;18.20;99.90;;;;;;5095591;28;20422;-77
2021/05/17 11:57:42;;;;;;;0.90;0.80;;;18.80;99.90;;;;;;5080477;28;20942;-77
2021/05/17 12:00:14;;;;;;;1.30;0.83;;;19.30;99.90;;;;;;5091497;28;20500;-77
2021/05/17 12:02:52;;;;;;;1.60;0.70;;;19.50;99.50;;;;;;5082596;28;20414;-77
2021/05/17 12:05:19;;;;;;;1.67;0.90;;;19.80;99.90;;;;;;5088370;28;20435;-78
2021/05/17 12:07:50;;;;;;;2.07;0.87;;;19.80;99.80;;;;;;5093573;28;20415;-78
2021/05/17 12:10:17;;;;;;;2.13;1.20;;;19.10;99.50;;;;;;5092630;28;20423;-76
2021/05/17 12:12:43;;;;;;;1.37;1.20;;;19.10;99.90;;;;;;5093737;28;20772;-77
2021/05/17 12:15:11;;;;;;;1.20;1.00;;;19.30;99.90;;;;;;5100842;28;20416;-77
2021/05/17 12:17:37;;;;;;;1.60;0.80;;;19.60;99.90;;;;;;5113705;28;20169;-77
2021/05/17 12:20:09;;;;;;;1.07;0.97;;;19.70;99.90;;;;;;5093683;28;20950;-77
2021/05/17 12:22:40;;;;;;;1.27;0.87;;;19.90;99.40;;;;;;5073537;28;20454;-77
2021/05/17 12:25:08;;;;;;;2.17;1.00;;;20.20;99.10;;;;;;5076112;28;20824;-76
2021/05/17 12:27:35;;;;;;;1.30;0.80;;;20.10;98.00;;;;;;5079070;28;20436;-77
2021/05/17 12:30:04;;;;;;;4.13;2.80;;;19.90;94.90;;;;;;5085978;28;20803;-77
2021/05/17 12:32:32;;;;;;;1.33;0.90;;;20.10;95.90;;;;;;5072400;28;20434;-77
2021/05/17 12:34:59;;;;;;;1.23;1.00;;;20.00;95.30;;;;;;5084016;28;20967;-77
2021/05/17 12:37:29;;;;;;;10.50;8.00;;;20.00;94.80;;;;;;5078779;28;20441;-77
2021/05/17 12:40:29;;;;;;;3.23;2.50;;;19.90;94.40;;;;;;5073621;28;20475;-78
2021/05/17 12:42:58;;;;;;;1.07;0.83;;;20.00;94.30;;;;;;5076585;28;20543;-77
2021/05/17 12:45:24;;;;;;;2.03;0.83;;;19.80;94.80;;;;;;5092771;28;20451;-77
2021/05/17 12:47:50;;;;;;;1.87;1.20;;;20.20;95.20;;;;;;5092803;28;20442;-77
2021/05/17 12:50:36;;;;;;;1.47;1.30;;;19.90;95.30;;;;;;5100001;28;20167;-77
2021/05/17 12:53:18;;;;;;;1.10;1.00;;;19.40;94.70;;;;;;5084824;28;20427;-77
2021/05/17 12:55:46;;;;;;;1.00;0.90;;;19.30;95.50;;;;;;5081939;28;20809;-77
2021/05/17 12:58:13;;;;;;;1.17;0.93;;;19.50;95.90;;;;;;5092345;28;20457;-77
2021/05/17 13:00:44;;;;;;;1.53;1.10;;;19.70;95.60;;;;;;5075828;28;20805;-77
2021/05/17 13:03:14;;;;;;;1.70;0.80;;;19.60;96.90;;;;;;5088883;28;20423;-77
2021/05/17 13:06:01;;;;;;;1.50;1.10;;;19.80;96.60;;;;;;5089579;28;20447;-77
2021/05/17 13:08:45;;;;;;;2.40;1.40;;;19.80;96.00;;;;;;5072288;28;20966;-77
2021/05/17 13:11:30;;;;;;;1.37;0.93;;;19.20;96.70;;;;;;5082424;28;20404;-77
2021/05/17 13:14:03;;;;;;;1.33;1.17;;;18.80;97.50;;;;;;5089454;28;20419;-77
2021/05/17 13:16:57;;;;;;;1.67;1.57;;;18.60;97.30;;;;;;5074019;28;20454;-77
2021/05/17 13:19:34;;;;;;;2.47;1.40;;;19.10;97.80;;;;;;5087318;28;20505;-77
2021/05/17 13:31:04;;;;;;;1.97;0.83;;;19.90;95.70;;;;;;5079372;28;20397;-76
2021/05/17 13:33:30;;;;;;;1.10;1.00;;;19.50;94.60;;;;;;5076000;28;20523;-76
2021/05/17 13:35:59;;;;;;;1.93;1.00;;;19.60;95.10;;;;;;5073858;28;20424;-78
2021/05/17 13:38:26;;;;;;;13.93;11.60;;;19.50;95.20;;;;;;5071346;28;20435;-77
2021/05/17 13:40:52;;;;;;;1.33;1.10;;;19.60;96.50;;;;;;5071488;28;20412;-77
2021/05/17 13:43:18;;;;;;;2.60;1.10;;;19.40;95.10;;;;;;5071578;28;20764;-77
2021/05/17 13:45:44;;;;;;;2.40;1.40;;;19.50;96.50;;;;;;5072211;28;20460;-77
2021/05/17 13:48:11;;;;;;;15.23;12.47;;;19.00;95.20;;;;;;5071014;28;20421;-77
2021/05/17 13:50:36;;;;;;;1.53;0.90;;;19.40;96.60;;;;;;5079234;28;20504;-76
2021/05/17 13:53:02;;;;;;;8.90;7.97;;;19.50;95.20;;;;;;5104043;28;21024;-76
2021/05/17 13:55:28;;;;;;;1.33;1.00;;;20.20;95.90;;;;;;5078396;28;20187;-78
2021/05/17 13:57:54;;;;;;;2.00;1.30;;;20.30;95.10;;;;;;5080693;28;20433;-77
2021/05/17 14:00:21;;;;;;;1.00;0.90;;;20.10;95.30;;;;;;5080795;28;20212;-77
2021/05/17 14:02:46;;;;;;;1.90;0.90;;;20.30;94.40;;;;;;5097558;28;20168;-77
2021/05/17 14:05:12;;;;;;;0.90;0.80;;;20.30;93.50;;;;;;5090024;28;20487;-77
2021/05/17 14:07:38;;;;;;;1.20;1.10;;;19.70;93.20;;;;;;5097887;28;20664;-77
2021/05/17 14:10:05;;;;;;;2.80;1.40;;;19.80;94.00;;;;;;5093461;28;20209;-77
2021/05/17 14:12:31;;;;;;;0.97;0.90;;;20.00;93.30;;;;;;5090575;28;20260;-77
2021/05/17 14:14:56;;;;;;;1.87;1.67;;;19.80;93.00;;;;;;5091683;28;20507;-77
2021/05/17 14:17:22;;;;;;;3.47;1.20;;;19.80;94.80;;;;;;5095939;28;20212;-77
2021/05/17 14:19:47;;;;;;;1.17;1.00;;;19.60;92.90;;;;;;5087140;28;20175;-78
2021/05/17 14:22:13;;;;;;;1.33;0.80;;;20.00;93.30;;;;;;5071508;28;20170;-77
2021/05/17 14:24:39;;;;;;;0.83;0.80;;;19.90;93.70;;;;;;5071465;28;20638;-77
2021/05/17 14:27:07;;;;;;;2.13;1.23;;;19.50;94.00;;;;;;5075526;28;20187;-77
2021/05/17 14:29:33;;;;;;;5.17;1.03;;;19.90;93.50;;;;;;5071326;28;20425;-77
2021/05/17 14:32:01;;;;;;;1.33;0.90;;;20.00;92.90;;;;;;5071261;28;20411;-77
2021/05/17 14:34:27;;;;;;;1.27;0.90;;;19.90;92.60;;;;;;5075057;28;20463;-74
2021/05/17 14:36:52;;;;;;;4.73;1.57;;;19.90;92.70;;;;;;5085870;28;20834;-77
2021/05/17 14:39:18;;;;;;;2.20;1.13;;;19.70;92.90;;;;;;5088821;28;20194;-77
2021/05/17 14:41:43;;;;;;;1.40;1.23;;;19.70;93.80;;;;;;5091435;28;20173;-76
2021/05/17 14:44:09;;;;;;;0.83;0.83;;;20.10;94.70;;;;;;5091332;28;20175;-77
2021/05/17 14:46:35;;;;;;;2.30;1.10;;;20.00;93.90;;;;;;5091078;28;20207;-77
2021/05/17 14:49:00;;;;;;;1.00;0.80;;;19.80;93.80;;;;;;5091292;28;20183;-78
2021/05/17 14:51:26;;;;;;;0.80;0.80;;;19.80;94.40;;;;;;5094998;28;20167;-77
2021/05/17 14:53:52;;;;;;;2.50;1.00;;;20.00;94.10;;;;;;5093675;28;20168;-77
2021/05/17 14:56:17;;;;;;;1.77;1.00;;;20.20;94.30;;;;;;5070583;28;20797;-77
2021/05/17 14:58:43;;;;;;;2.40;1.33;;;20.00;93.50;;;;;;5071150;28;20183;-77
2021/05/17 15:01:08;;;;;;;1.23;1.10;;;20.00;93.30;;;;;;5086488;28;20182;-77
2021/05/17 15:03:34;;;;;;;1.73;1.50;;;19.80;93.40;;;;;;5093289;28;20277;-77
2021/05/17 15:06:00;;;;;;;4.50;3.37;;;19.90;92.50;;;;;;5092953;28;20198;-76
2021/05/17 15:08:25;;;;;;;6.47;5.87;;;19.80;92.40;;;;;;5094653;28;20329;-77
2021/05/17 15:10:51;;;;;;;3.30;2.00;;;20.00;92.80;;;;;;5089488;28;20225;-77
2021/05/17 15:13:16;;;;;;;1.63;1.53;;;20.20;92.10;;;;;;5074102;28;20159;-77
2021/05/17 15:15:42;;;;;;;4.10;1.30;;;20.30;92.30;;;;;;5090094;28;20175;-77